createdAt,value
2023-12-01T00:00:06.944Z,34.72
2023-12-01T00:02:35.045Z,34.85
2023-12-01T00:05:03.038Z,32.75
2023-12-01T00:07:32.278Z,28.55
2023-12-01T00:10:00.349Z,29.20
2023-12-01T00:12:28.471Z,27.67
2023-12-01T00:14:56.413Z,27.98
2023-12-01T00:17:24.372Z,26.25
2023-12-01T00:19:52.375Z,26.33
2023-12-01T00:22:20.300Z,26.73
2023-12-01T00:24:49.626Z,29.27
2023-12-01T00:27:17.626Z,29.60
2023-12-01T00:29:45.606Z,29.40
2023-12-01T00:32:13.634Z,29.85
2023-12-01T00:34:41.653Z,27.83
2023-12-01T00:37:10.325Z,25.63
2023-12-01T00:39:38.393Z,25.50
2023-12-01T00:42:07.961Z,24.90
2023-12-01T00:44:35.850Z,23.40
2023-12-01T00:47:03.849Z,24.13
2023-12-01T00:49:32.737Z,24.08
2023-12-01T00:52:00.777Z,23.58
2023-12-01T00:54:28.835Z,22.63
2023-12-01T00:56:56.799Z,22.77
2023-12-01T00:59:26.339Z,21.90
2023-12-01T01:01:54.278Z,23.05
2023-12-01T01:04:22.336Z,21.63
2023-12-01T01:06:50.472Z,23.42
2023-12-01T01:09:18.480Z,22.20
2023-12-01T01:11:46.571Z,22.15
2023-12-01T01:14:14.638Z,22.48
2023-12-01T01:16:43.992Z,21.25
2023-12-01T01:19:12.069Z,23.02
2023-12-01T01:21:40.221Z,21.27
2023-12-01T01:24:08.453Z,23.10
2023-12-01T01:26:36.354Z,21.83
2023-12-01T01:29:04.289Z,21.55
2023-12-01T01:31:32.768Z,20.83
2023-12-01T01:34:02.203Z,20.55
2023-12-01T01:36:30.493Z,20.95
2023-12-01T01:38:58.432Z,22.05
2023-12-01T01:41:26.439Z,21.35
2023-12-01T01:43:54.339Z,20.55
2023-12-01T01:46:22.811Z,20.33
2023-12-01T01:48:50.895Z,21.27
2023-12-01T01:51:20.502Z,21.98
2023-12-01T01:53:48.565Z,20.80
2023-12-01T01:56:16.845Z,22.00
2023-12-01T01:58:45.674Z,20.85
2023-12-01T02:01:13.696Z,22.33
2023-12-01T02:03:42.685Z,21.77
2023-12-01T02:06:10.868Z,21.70
2023-12-01T02:08:40.650Z,21.02
2023-12-01T02:11:08.716Z,21.70
2023-12-01T02:13:36.741Z,21.17
2023-12-01T02:16:04.926Z,22.30
2023-12-01T02:18:34.784Z,20.25
2023-12-01T02:21:03.213Z,20.90
2023-12-01T02:23:32.561Z,20.10
2023-12-01T02:26:00.771Z,20.83
2023-12-01T02:28:28.752Z,19.67
2023-12-01T02:30:57.765Z,21.77
2023-12-01T02:33:25.849Z,22.58
2023-12-01T02:35:54.698Z,21.58
2023-12-01T02:38:22.771Z,20.42
2023-12-01T02:40:52.468Z,21.02
2023-12-01T02:43:22.223Z,23.45
2023-12-01T02:45:51.026Z,21.38
2023-12-01T02:48:19.204Z,21.75
2023-12-01T02:50:47.333Z,21.27
2023-12-01T02:53:16.803Z,22.25
2023-12-01T02:55:45.106Z,23.40
2023-12-01T02:58:14.606Z,23.17
2023-12-01T03:00:43.674Z,24.75
2023-12-01T03:03:12.272Z,22.02
2023-12-01T03:05:40.607Z,22.27
2023-12-01T03:08:08.982Z,23.90
2023-12-01T03:10:37.148Z,24.02
2023-12-01T03:13:05.202Z,21.35
2023-12-01T03:15:34.703Z,23.23
2023-12-01T03:18:02.826Z,24.23
2023-12-01T03:20:30.867Z,22.30
2023-12-01T03:22:58.850Z,23.92
2023-12-01T03:25:26.791Z,22.20
2023-12-01T03:27:54.763Z,22.50
2023-12-01T03:30:22.915Z,22.73
2023-12-01T03:32:52.739Z,22.23
2023-12-01T03:35:21.858Z,22.77
2023-12-01T03:37:50.383Z,21.95
2023-12-01T03:40:18.638Z,24.50
2023-12-01T03:42:48.128Z,22.10
2023-12-01T03:45:17.027Z,22.63
2023-12-01T03:47:45.876Z,21.52
2023-12-01T03:50:15.322Z,21.92
2023-12-01T03:52:43.725Z,22.45
2023-12-01T03:55:12.605Z,24.95
2023-12-01T03:57:41.137Z,23.95
2023-12-01T04:00:14.611Z,24.00
2023-12-01T04:02:43.819Z,22.30
2023-12-01T04:05:20.754Z,20.45
2023-12-01T04:07:55.467Z,20.83
2023-12-01T04:10:26.553Z,21.33
2023-12-01T04:12:56.023Z,23.08
2023-12-01T04:15:26.765Z,22.33
2023-12-01T04:17:55.486Z,22.23
2023-12-01T04:20:24.537Z,22.40
2023-12-01T04:22:55.044Z,21.25
2023-12-01T04:25:23.105Z,21.45
2023-12-01T04:27:52.088Z,20.67
2023-12-01T04:30:21.702Z,21.92
2023-12-01T04:32:54.140Z,19.30
2023-12-01T04:35:22.821Z,19.95
2023-12-01T04:37:50.902Z,17.88
2023-12-01T04:40:20.422Z,19.00
2023-12-01T04:42:49.198Z,17.45
2023-12-01T04:45:17.936Z,16.13
2023-12-01T04:47:46.512Z,16.25
2023-12-01T04:50:16.806Z,15.80
2023-12-01T04:52:45.590Z,14.88
2023-12-01T04:55:14.541Z,15.52
2023-12-01T04:57:44.559Z,14.70
2023-12-01T05:00:21.245Z,16.13
2023-12-01T05:02:48.931Z,15.75
2023-12-01T05:05:17.379Z,15.70
2023-12-01T05:07:45.639Z,15.02
2023-12-01T05:10:16.788Z,14.27
2023-12-01T05:12:50.398Z,13.80
2023-12-01T05:15:19.726Z,14.60
2023-12-01T05:17:49.198Z,14.45
2023-12-01T05:20:17.932Z,13.02
2023-12-01T05:22:46.386Z,15.15
2023-12-01T05:25:15.876Z,15.30
2023-12-01T05:27:50.276Z,15.88
2023-12-01T05:30:19.954Z,15.63
2023-12-01T05:32:48.556Z,14.18
2023-12-01T05:35:16.923Z,14.77
2023-12-01T05:37:48.753Z,13.60
2023-12-01T05:40:17.606Z,14.45
2023-12-01T05:42:46.195Z,12.65
2023-12-01T05:45:15.888Z,13.57
2023-12-01T05:47:44.715Z,12.98
2023-12-01T05:50:14.423Z,12.73
2023-12-01T05:52:43.292Z,13.50
2023-12-01T05:55:16.346Z,13.38
2023-12-01T05:57:45.632Z,12.88
2023-12-01T06:00:16.573Z,12.02
2023-12-01T06:02:44.339Z,13.23
2023-12-01T06:05:13.614Z,13.38
2023-12-01T06:07:43.273Z,13.25
2023-12-01T06:10:11.801Z,12.50
2023-12-01T06:12:40.058Z,12.70
2023-12-01T06:15:10.802Z,12.18
2023-12-01T06:17:40.555Z,12.07
2023-12-01T06:20:18.305Z,12.88
2023-12-01T06:22:47.378Z,12.82
2023-12-01T06:25:15.754Z,11.40
2023-12-01T06:27:43.969Z,12.18
2023-12-01T06:30:13.399Z,11.80
2023-12-01T06:32:43.538Z,12.48
2023-12-01T06:35:12.912Z,12.35
2023-12-01T06:37:40.956Z,12.73
2023-12-01T06:40:12.778Z,12.20
2023-12-01T06:42:42.081Z,13.05
2023-12-01T06:45:11.443Z,12.25
2023-12-01T06:47:41.427Z,11.52
2023-12-01T06:50:12.203Z,11.48
2023-12-01T06:52:40.333Z,12.38
2023-12-01T06:55:09.455Z,11.88
2023-12-01T06:57:39.278Z,12.30
2023-12-01T07:00:09.457Z,13.85
2023-12-01T07:02:38.775Z,13.52
2023-12-01T07:05:07.574Z,12.40
2023-12-01T07:07:38.782Z,13.05
2023-12-01T07:10:07.938Z,11.70
2023-12-01T07:12:36.252Z,11.90
2023-12-01T07:15:04.732Z,12.50
2023-12-01T07:17:32.788Z,11.07
2023-12-01T07:20:01.150Z,10.93
2023-12-01T07:22:29.202Z,12.48
2023-12-01T07:24:58.642Z,11.50
2023-12-01T07:27:26.796Z,11.43
2023-12-01T07:29:54.808Z,10.32
2023-12-01T07:32:22.944Z,10.73
2023-12-01T07:34:50.895Z,10.85
2023-12-01T07:37:18.831Z,11.35
2023-12-01T07:39:46.920Z,11.35
2023-12-01T07:42:16.227Z,10.82
2023-12-01T07:44:44.194Z,11.50
2023-12-01T07:47:13.386Z,11.23
2023-12-01T07:49:42.637Z,10.38
2023-12-01T07:52:10.712Z,9.95
2023-12-01T07:54:39.904Z,11.00
2023-12-01T07:57:07.918Z,10.10
2023-12-01T07:59:37.172Z,10.52
2023-12-01T08:02:05.399Z,10.32
2023-12-01T08:04:33.564Z,10.57
2023-12-01T08:07:01.529Z,10.18
2023-12-01T08:09:32.316Z,10.75
2023-12-01T08:12:00.359Z,11.38
2023-12-01T08:14:28.358Z,10.73
2023-12-01T08:16:57.838Z,10.88
2023-12-01T08:19:25.888Z,11.43
2023-12-01T08:21:53.915Z,9.80
2023-12-01T08:24:31.825Z,11.27
2023-12-01T08:27:01.226Z,11.02
2023-12-01T08:29:31.902Z,11.35
2023-12-01T08:32:02.106Z,12.82
2023-12-01T08:34:30.162Z,11.70
2023-12-01T08:36:58.110Z,11.48
2023-12-01T08:39:26.279Z,13.05
2023-12-01T08:41:54.836Z,11.68
2023-12-01T08:44:22.802Z,13.07
2023-12-01T08:46:50.793Z,11.40
2023-12-01T08:49:20.313Z,10.50
2023-12-01T08:51:48.353Z,10.40
2023-12-01T08:54:21.734Z,11.90
2023-12-01T08:56:50.389Z,13.23
2023-12-01T08:59:19.004Z,12.63
2023-12-01T09:01:47.308Z,10.70
2023-12-01T09:04:15.493Z,12.20
2023-12-01T09:06:44.781Z,11.98
2023-12-01T09:09:13.756Z,13.85
2023-12-01T09:11:41.921Z,13.45
2023-12-01T09:14:09.926Z,12.27
2023-12-01T09:16:37.887Z,13.68
2023-12-01T09:19:07.873Z,13.82
2023-12-01T09:21:36.206Z,14.10
2023-12-01T09:24:05.781Z,13.93
2023-12-01T09:26:33.754Z,13.60
2023-12-01T09:29:01.705Z,13.07
2023-12-01T09:31:29.937Z,14.38
2023-12-01T09:33:58.962Z,13.95
2023-12-01T09:36:27.996Z,13.68
2023-12-01T09:38:56.019Z,15.43
2023-12-01T09:41:25.376Z,13.43
2023-12-01T09:43:59.976Z,12.05
2023-12-01T09:46:35.466Z,11.68
2023-12-01T09:49:05.446Z,12.05
2023-12-01T09:51:35.446Z,10.85
2023-12-01T09:54:04.074Z,13.32
2023-12-01T09:56:33.739Z,11.60
2023-12-01T09:59:01.699Z,12.85
2023-12-01T10:01:29.855Z,13.00
2023-12-01T10:03:57.919Z,10.30
2023-12-01T10:06:26.179Z,10.95
2023-12-01T10:08:54.252Z,11.57
2023-12-01T10:11:22.979Z,11.57
2023-12-01T10:13:52.428Z,12.20
2023-12-01T10:16:22.068Z,10.85
2023-12-01T10:18:59.654Z,11.65
2023-12-01T10:21:44.922Z,12.48
2023-12-01T10:24:17.169Z,11.75
2023-12-01T10:26:45.548Z,11.52
2023-12-01T10:29:29.633Z,12.57
2023-12-01T10:31:58.784Z,12.23
2023-12-01T10:34:27.040Z,11.65
2023-12-01T10:36:55.153Z,11.75
2023-12-01T10:39:25.465Z,13.40
2023-12-01T10:41:55.194Z,12.35
2023-12-01T10:44:25.416Z,12.40
2023-12-01T10:46:55.518Z,12.77
2023-12-01T10:49:23.999Z,10.95
2023-12-01T10:51:53.971Z,11.63
2023-12-01T10:54:24.655Z,11.40
2023-12-01T10:56:57.611Z,12.23
2023-12-01T10:59:27.310Z,13.25
2023-12-01T11:01:57.501Z,12.70
2023-12-01T11:04:27.429Z,12.68
2023-12-01T11:07:05.469Z,11.93
2023-12-01T11:09:37.651Z,12.05
2023-12-01T11:12:10.901Z,13.57
2023-12-01T11:14:39.610Z,13.10
2023-12-01T11:17:09.201Z,13.25
2023-12-01T11:19:40.015Z,11.68
2023-12-01T11:22:22.850Z,12.68
2023-12-01T11:24:50.963Z,12.88
2023-12-01T11:27:18.998Z,13.13
2023-12-01T11:29:59.693Z,14.02
2023-12-01T11:32:34.869Z,14.23
2023-12-01T11:35:08.053Z,13.82
2023-12-01T11:37:57.067Z,13.38
2023-12-01T11:40:25.583Z,12.70
2023-12-01T11:43:00.780Z,13.20
2023-12-01T11:45:38.351Z,14.27
2023-12-01T11:48:10.207Z,13.63
2023-12-01T11:50:39.627Z,12.98
2023-12-01T11:53:07.736Z,12.57
2023-12-01T11:55:36.115Z,12.90
2023-12-01T11:58:04.085Z,12.68
2023-12-01T12:00:35.154Z,13.82
2023-12-01T12:03:03.887Z,13.77
2023-12-01T12:05:34.129Z,13.32
2023-12-01T12:08:02.069Z,13.15
2023-12-01T12:10:31.084Z,12.07
2023-12-01T12:12:59.280Z,12.98
2023-12-01T12:15:27.532Z,11.85
2023-12-01T12:17:55.609Z,12.10
2023-12-01T12:20:26.841Z,12.10
2023-12-01T12:25:24.724Z,12.50
2023-12-01T12:27:53.041Z,13.15
2023-12-01T12:30:21.256Z,12.68
2023-12-01T12:32:49.374Z,13.57
2023-12-01T12:35:17.557Z,11.18
2023-12-01T12:37:45.981Z,11.15
2023-12-01T12:40:16.648Z,11.50
2023-12-01T12:42:56.047Z,11.55
2023-12-01T12:45:24.115Z,11.18
2023-12-01T12:47:52.196Z,14.98
2023-12-01T12:50:20.137Z,12.05
2023-12-01T12:52:48.037Z,11.93
2023-12-01T12:55:25.090Z,11.50
2023-12-01T12:57:53.755Z,11.10
2023-12-01T13:00:23.196Z,13.55
2023-12-01T13:02:51.552Z,12.25
2023-12-01T13:05:20.136Z,14.02
2023-12-01T13:07:48.036Z,12.98
2023-12-01T13:10:16.036Z,12.68
2023-12-01T13:12:43.965Z,13.07
2023-12-01T13:15:11.938Z,12.82
2023-12-01T13:17:41.381Z,13.80
2023-12-01T13:20:11.038Z,11.93
2023-12-01T13:22:39.279Z,19.60
2023-12-01T13:25:07.779Z,13.45
2023-12-01T13:27:35.769Z,13.25
2023-12-01T13:30:04.899Z,12.40
2023-12-01T13:32:32.920Z,13.63
2023-12-01T13:35:02.494Z,13.82
2023-12-01T13:37:30.452Z,12.32
2023-12-01T13:39:58.408Z,11.82
2023-12-01T13:42:30.812Z,12.57
2023-12-01T13:45:00.537Z,12.43
2023-12-01T13:47:28.526Z,10.75
2023-12-01T13:49:56.489Z,10.70
2023-12-01T13:52:28.169Z,11.43
2023-12-01T13:54:56.550Z,10.82
2023-12-01T13:57:24.554Z,12.98
2023-12-01T13:59:52.562Z,11.68
2023-12-01T14:02:20.654Z,13.45
2023-12-01T14:04:49.126Z,11.35
2023-12-01T14:07:17.051Z,11.00
2023-12-01T14:09:46.287Z,13.27
2023-12-01T14:12:14.232Z,11.43
2023-12-01T14:14:42.243Z,12.00
2023-12-01T14:17:10.580Z,12.48
2023-12-01T14:19:39.213Z,11.13
2023-12-01T14:22:07.525Z,11.32
2023-12-01T14:24:35.524Z,10.45
2023-12-01T14:27:05.101Z,11.25
2023-12-01T14:29:34.060Z,13.02
2023-12-01T14:32:09.009Z,11.65
2023-12-01T14:34:40.985Z,11.30
2023-12-01T14:37:09.342Z,11.45
2023-12-01T14:39:37.324Z,10.70
2023-12-01T14:42:06.993Z,13.20
2023-12-01T14:44:34.904Z,11.18
2023-12-01T14:47:02.794Z,12.10
2023-12-01T14:49:30.743Z,11.73
2023-12-01T14:51:58.727Z,11.00
2023-12-01T14:54:26.821Z,12.63
2023-12-01T14:56:54.774Z,13.40
2023-12-01T14:59:25.156Z,12.15
2023-12-01T15:01:54.873Z,14.70
2023-12-01T15:04:23.111Z,12.18
2023-12-01T15:06:51.129Z,13.25
2023-12-01T15:09:19.574Z,12.20
2023-12-01T15:11:49.494Z,12.05
2023-12-01T15:14:17.406Z,10.38
2023-12-01T15:16:46.792Z,11.70
2023-12-01T15:19:14.814Z,11.25
2023-12-01T15:21:43.347Z,12.30
2023-12-01T15:24:11.377Z,11.77
2023-12-01T15:26:39.394Z,10.43
2023-12-01T15:29:07.598Z,10.30
2023-12-01T15:31:35.522Z,10.85
2023-12-01T15:34:04.923Z,11.73
2023-12-01T15:36:35.479Z,12.70
2023-12-01T15:39:05.010Z,9.98
2023-12-01T15:41:32.989Z,12.13
2023-12-01T15:44:00.924Z,10.10
2023-12-01T15:46:28.917Z,12.65
2023-12-01T15:48:57.354Z,11.85
2023-12-01T15:51:26.797Z,11.25
2023-12-01T15:53:54.902Z,11.07
2023-12-01T15:56:22.998Z,11.63
2023-12-01T15:58:52.116Z,9.45
2023-12-01T16:01:20.183Z,11.60
2023-12-01T16:03:48.388Z,12.20
2023-12-01T16:06:16.397Z,12.43
2023-12-01T16:08:45.801Z,11.57
2023-12-01T16:11:14.731Z,12.93
2023-12-01T16:13:43.694Z,11.13
2023-12-01T16:16:11.933Z,11.35
2023-12-01T16:18:40.246Z,11.40
2023-12-01T16:21:08.880Z,13.07
2023-12-01T16:23:36.911Z,10.85
2023-12-01T16:26:11.732Z,10.13
2023-12-01T16:28:39.670Z,11.38
2023-12-01T16:31:09.044Z,11.35
2023-12-01T16:33:37.380Z,11.82
2023-12-01T16:36:30.117Z,12.90
2023-12-01T16:38:55.077Z,11.35
2023-12-01T16:41:24.393Z,11.63
2023-12-01T16:43:52.343Z,12.60
2023-12-01T16:46:20.293Z,10.82
2023-12-01T16:48:48.415Z,11.35
2023-12-01T16:51:16.711Z,11.75
2023-12-01T16:53:46.544Z,11.57
2023-12-01T16:56:17.584Z,12.65
2023-12-01T16:58:48.346Z,11.13
2023-12-01T17:01:16.257Z,11.10
2023-12-01T17:03:44.551Z,13.10
2023-12-01T17:06:12.813Z,13.00
2023-12-01T17:08:40.793Z,13.85
2023-12-01T17:11:09.096Z,11.90
2023-12-01T17:13:37.104Z,11.23
2023-12-01T17:16:07.227Z,12.05
2023-12-01T17:18:35.261Z,12.75
2023-12-01T17:21:03.333Z,11.95
2023-12-01T17:23:31.464Z,12.30
2023-12-01T17:25:59.376Z,12.75
2023-12-01T17:28:27.355Z,11.13
2023-12-01T17:30:55.408Z,11.75
2023-12-01T17:33:24.963Z,10.93
2023-12-01T17:35:52.912Z,11.13
2023-12-01T17:38:22.460Z,10.82
2023-12-01T17:40:50.454Z,11.60
2023-12-01T17:43:18.642Z,11.68
2023-12-01T17:45:46.618Z,12.43
2023-12-01T17:48:15.539Z,11.68
2023-12-01T17:50:44.955Z,11.88
2023-12-01T17:53:13.094Z,13.60
2023-12-01T17:55:41.284Z,12.48
2023-12-01T17:58:09.352Z,12.60
2023-12-01T18:00:38.407Z,13.68
2023-12-01T18:03:06.410Z,14.48
2023-12-01T18:05:34.353Z,14.57
2023-12-01T18:08:03.703Z,15.40
2023-12-01T18:10:31.654Z,16.30
2023-12-01T18:12:59.621Z,15.27
2023-12-01T18:15:27.625Z,15.95
2023-12-01T18:17:55.697Z,14.15
2023-12-01T18:20:25.646Z,15.25
2023-12-01T18:22:54.988Z,21.05
2023-12-01T18:25:24.376Z,19.13
2023-12-01T18:27:52.422Z,16.67
2023-12-01T18:30:20.863Z,17.40
2023-12-01T18:32:50.095Z,19.77
2023-12-01T18:35:19.034Z,16.70
2023-12-01T18:37:46.950Z,15.80
2023-12-01T18:40:15.655Z,17.65
2023-12-01T18:42:45.078Z,16.85
2023-12-01T18:45:13.073Z,17.30
2023-12-01T18:47:41.087Z,16.45
2023-12-01T18:50:09.389Z,17.75
2023-12-01T18:52:37.390Z,17.95
2023-12-01T18:55:05.647Z,19.17
2023-12-01T18:57:33.657Z,17.63
2023-12-01T19:00:05.238Z,17.63
2023-12-01T19:02:35.718Z,17.13
2023-12-01T19:05:04.197Z,18.73
2023-12-01T19:07:34.751Z,17.40
2023-12-01T19:10:03.086Z,18.70
2023-12-01T19:12:31.054Z,18.77
2023-12-01T19:14:59.239Z,17.92
2023-12-01T19:17:28.613Z,19.42
2023-12-01T19:19:56.737Z,18.27
2023-12-01T19:22:24.660Z,17.27
2023-12-01T19:24:52.673Z,15.75
2023-12-01T19:27:20.698Z,17.42
2023-12-01T19:29:48.730Z,21.15
2023-12-01T19:32:16.803Z,26.20
2023-12-01T19:34:46.084Z,27.00
2023-12-01T19:37:14.033Z,26.35
2023-12-01T19:39:42.012Z,24.73
2023-12-01T19:42:11.955Z,23.02
2023-12-01T19:44:40.183Z,22.23
2023-12-01T19:47:08.104Z,18.80
2023-12-01T19:49:36.124Z,17.80
2023-12-01T19:52:05.944Z,17.67
2023-12-01T19:54:33.973Z,18.90
2023-12-01T19:57:02.181Z,17.73
2023-12-01T19:59:30.153Z,18.25
2023-12-01T20:01:58.122Z,18.73
2023-12-01T20:04:26.145Z,19.90
2023-12-01T20:06:54.088Z,21.23
2023-12-01T20:09:23.401Z,19.45
2023-12-01T20:11:52.672Z,19.83
2023-12-01T20:14:21.892Z,18.42
2023-12-01T20:16:51.720Z,18.23
2023-12-01T20:19:19.771Z,21.38
2023-12-01T20:21:47.680Z,20.27
2023-12-01T20:24:15.611Z,21.80
2023-12-01T20:26:44.935Z,20.90
2023-12-01T20:29:12.889Z,27.27
2023-12-01T20:31:42.428Z,19.35
2023-12-01T20:34:10.459Z,20.45
2023-12-01T20:36:38.477Z,19.60
2023-12-01T20:39:07.704Z,19.30
2023-12-01T20:41:35.836Z,18.05
2023-12-01T20:44:05.366Z,16.50
2023-12-01T20:46:34.222Z,18.20
2023-12-01T20:49:02.402Z,16.58
2023-12-01T20:51:30.501Z,16.90
2023-12-01T20:53:58.531Z,17.25
2023-12-01T20:56:26.500Z,17.02
2023-12-01T20:58:54.466Z,18.13
2023-12-01T21:01:23.703Z,16.63
2023-12-01T21:03:51.783Z,17.58
2023-12-01T21:06:19.908Z,18.65
2023-12-01T21:08:47.869Z,16.70
2023-12-01T21:11:15.784Z,17.67
2023-12-01T21:13:43.873Z,17.30
2023-12-01T21:16:11.848Z,16.33
2023-12-01T21:18:41.231Z,17.15
2023-12-01T21:21:12.059Z,16.65
2023-12-01T21:23:40.086Z,16.65
2023-12-01T21:26:08.504Z,15.48
2023-12-01T21:28:36.609Z,16.40
2023-12-01T21:31:04.657Z,14.82
2023-12-01T21:33:32.811Z,15.45
2023-12-01T21:36:02.227Z,15.15
2023-12-01T21:38:30.234Z,13.48
2023-12-01T21:40:58.225Z,15.05
2023-12-01T21:43:26.256Z,14.63
2023-12-01T21:45:54.252Z,14.68
2023-12-01T21:48:22.481Z,14.75
2023-12-01T21:50:50.661Z,14.88
2023-12-01T21:53:20.146Z,16.65
2023-12-01T21:55:48.136Z,14.73
2023-12-01T21:58:16.203Z,15.13
2023-12-01T22:00:44.122Z,15.48
2023-12-01T22:03:13.963Z,15.57
2023-12-01T22:05:41.989Z,14.68
2023-12-01T22:08:09.965Z,15.23
2023-12-01T22:10:39.463Z,14.45
2023-12-01T22:13:07.382Z,14.88
2023-12-01T22:15:35.881Z,14.93
2023-12-01T22:18:04.003Z,14.05
2023-12-01T22:20:32.041Z,14.63
2023-12-01T22:23:00.033Z,13.93
2023-12-01T22:25:28.032Z,13.40
2023-12-01T22:27:57.345Z,14.90
2023-12-01T22:30:25.381Z,13.40
2023-12-01T22:32:53.453Z,14.65
2023-12-01T22:35:21.509Z,15.55
2023-12-01T22:37:49.753Z,15.38
2023-12-01T22:40:17.932Z,13.40
2023-12-01T22:42:45.889Z,14.82
2023-12-01T22:45:15.240Z,13.63
2023-12-01T22:47:43.268Z,14.05
2023-12-01T22:50:11.425Z,14.40
2023-12-01T22:52:39.400Z,15.35
2023-12-01T22:55:08.059Z,14.65
2023-12-01T22:57:36.006Z,15.05
2023-12-01T23:00:08.391Z,15.13
2023-12-01T23:02:37.970Z,15.55
2023-12-01T23:05:06.604Z,14.30
2023-12-01T23:07:34.644Z,15.73
2023-12-01T23:10:02.597Z,15.25
2023-12-01T23:12:30.539Z,17.02
2023-12-01T23:14:58.544Z,14.98
2023-12-01T23:17:26.561Z,16.50
2023-12-01T23:19:55.990Z,14.38
2023-12-01T23:22:24.015Z,14.45
2023-12-01T23:24:52.424Z,14.98
2023-12-01T23:27:26.750Z,15.50
2023-12-01T23:29:57.873Z,15.65
2023-12-01T23:32:26.000Z,13.02
2023-12-01T23:34:53.998Z,14.82
2023-12-01T23:37:23.255Z,16.90
2023-12-01T23:39:51.250Z,15.65
2023-12-01T23:42:19.241Z,16.25
2023-12-01T23:44:47.245Z,16.55
2023-12-01T23:47:15.332Z,15.77
2023-12-01T23:49:43.370Z,15.73
2023-12-01T23:52:11.473Z,14.57
2023-12-01T23:54:40.791Z,15.52
2023-12-01T23:57:08.783Z,14.63
2023-12-01T23:59:36.717Z,14.40
